Terminal Aerodrome Forecast
Issued by NWS

Home | Current Version | Previous Version | Text Only | Print | Product List | Glossary On
Versions: 1 2 3 4 5 6 7 8 9 10 11 12 13 14 15 16 17 18
000
FTUS43 KGRR 311000 AAA
TAFJXN
TAF AMD
KJXN 311040Z 3111/0106 20003KT P6SM SCT080 BKN100
     FM311800 23010KT P6SM BKN035
     FM010000 25003KT P6SM -SN OVC015=

USA.gov is the U.S. government's official web portal to all federal, state and local government web resources and services.